sensor_id;sensor_type;location;lat;lon;timestamp;pressure;altitude;pressure_sealevel;temperature;humidity
76297;BME280;65104;52.994;6.552;2023-05-13T00:00:11;102171.28;;;11.59;88.09
76297;BME280;65104;52.994;6.552;2023-05-13T00:02:37;102172.13;;;11.58;87.78
76297;BME280;65104;52.994;6.552;2023-05-13T00:05:02;102168.00;;;11.63;87.78
76297;BME280;65104;52.994;6.552;2023-05-13T00:07:28;102165.34;;;11.60;87.75
76297;BME280;65104;52.994;6.552;2023-05-13T00:09:53;102165.94;;;11.53;87.96
76297;BME280;65104;52.994;6.552;2023-05-13T00:12:19;102168.59;;;11.56;88.39
76297;BME280;65104;52.994;6.552;2023-05-13T00:14:44;102164.41;;;11.58;88.10
76297;BME280;65104;52.994;6.552;2023-05-13T00:17:09;102166.75;;;11.52;88.57
76297;BME280;65104;52.994;6.552;2023-05-13T00:19:35;102151.69;;;11.39;89.69
76297;BME280;65104;52.994;6.552;2023-05-13T00:22:00;102160.41;;;11.43;90.38
76297;BME280;65104;52.994;6.552;2023-05-13T00:24:26;102171.72;;;11.48;90.57
76297;BME280;65104;52.994;6.552;2023-05-13T00:26:52;102167.88;;;11.37;91.35
76297;BME280;65104;52.994;6.552;2023-05-13T00:29:18;102172.03;;;11.33;90.89
76297;BME280;65104;52.994;6.552;2023-05-13T00:31:43;102169.47;;;11.33;91.08
76297;BME280;65104;52.994;6.552;2023-05-13T00:34:08;102165.81;;;11.26;91.43
76297;BME280;65104;52.994;6.552;2023-05-13T00:36:34;102166.56;;;11.24;91.69
76297;BME280;65104;52.994;6.552;2023-05-13T00:38:59;102165.56;;;11.20;91.67
76297;BME280;65104;52.994;6.552;2023-05-13T00:41:24;102166.22;;;11.15;92.39
76297;BME280;65104;52.994;6.552;2023-05-13T00:43:53;102172.88;;;11.10;92.75
76297;BME280;65104;52.994;6.552;2023-05-13T00:46:19;102165.47;;;11.17;92.55
76297;BME280;65104;52.994;6.552;2023-05-13T00:48:45;102160.06;;;11.11;92.73
76297;BME280;65104;52.994;6.552;2023-05-13T00:51:10;102158.28;;;11.09;92.83
76297;BME280;65104;52.994;6.552;2023-05-13T00:53:36;102156.59;;;11.09;92.96
76297;BME280;65104;52.994;6.552;2023-05-13T00:56:03;102154.84;;;11.08;93.46
76297;BME280;65104;52.994;6.552;2023-05-13T00:58:28;102164.69;;;11.20;91.59
76297;BME280;65104;52.994;6.552;2023-05-13T01:06:35;102154.84;;;11.08;92.93
76297;BME280;65104;52.994;6.552;2023-05-13T01:09:17;102158.56;;;11.16;91.80
76297;BME280;65104;52.994;6.552;2023-05-13T01:11:48;102159.19;;;11.11;92.55
76297;BME280;65104;52.994;6.552;2023-05-13T01:14:19;102156.34;;;11.03;92.53
76297;BME280;65104;52.994;6.552;2023-05-13T01:17:09;102159.38;;;10.93;92.75
76297;BME280;65104;52.994;6.552;2023-05-13T01:19:41;102165.19;;;10.87;93.81
76297;BME280;65104;52.994;6.552;2023-05-13T01:22:07;102162.38;;;10.81;93.50
76297;BME280;65104;52.994;6.552;2023-05-13T01:24:32;102161.38;;;10.78;94.77
76297;BME280;65104;52.994;6.552;2023-05-13T01:26:58;102162.06;;;10.74;95.36
76297;BME280;65104;52.994;6.552;2023-05-13T01:29:24;102154.53;;;10.78;95.62
76297;BME280;65104;52.994;6.552;2023-05-13T01:31:50;102162.94;;;10.74;95.75
76297;BME280;65104;52.994;6.552;2023-05-13T01:34:18;102161.31;;;10.76;95.10
76297;BME280;65104;52.994;6.552;2023-05-13T01:36:45;102162.25;;;10.78;94.35
76297;BME280;65104;52.994;6.552;2023-05-13T01:39:10;102160.50;;;10.77;94.69
76297;BME280;65104;52.994;6.552;2023-05-13T01:41:37;102163.06;;;10.77;95.09
76297;BME280;65104;52.994;6.552;2023-05-13T01:44:02;102164.00;;;10.79;95.14
76297;BME280;65104;52.994;6.552;2023-05-13T01:46:28;102155.28;;;10.76;94.99
76297;BME280;65104;52.994;6.552;2023-05-13T01:48:53;102156.91;;;10.74;95.15
76297;BME280;65104;52.994;6.552;2023-05-13T01:51:18;102158.56;;;10.72;95.04
76297;BME280;65104;52.994;6.552;2023-05-13T01:53:44;102155.19;;;10.73;95.40
76297;BME280;65104;52.994;6.552;2023-05-13T01:56:09;102162.19;;;10.77;94.97
76297;BME280;65104;52.994;6.552;2023-05-13T01:58:35;102156.81;;;10.71;96.15
76297;BME280;65104;52.994;6.552;2023-05-13T02:01:00;102154.84;;;10.64;97.44
76297;BME280;65104;52.994;6.552;2023-05-13T02:03:26;102154.56;;;10.58;97.39
76297;BME280;65104;52.994;6.552;2023-05-13T02:05:51;102158.66;;;10.52;97.78
76297;BME280;65104;52.994;6.552;2023-05-13T02:08:16;102160.84;;;10.43;98.52
76297;BME280;65104;52.994;6.552;2023-05-13T02:10:42;102164.06;;;10.38;98.43
76297;BME280;65104;52.994;6.552;2023-05-13T02:13:07;102159.28;;;10.47;98.91
76297;BME280;65104;52.994;6.552;2023-05-13T02:15:32;102164.53;;;10.50;99.00
76297;BME280;65104;52.994;6.552;2023-05-13T02:17:58;102169.63;;;10.48;98.63
76297;BME280;65104;52.994;6.552;2023-05-13T02:20:23;102158.59;;;10.51;98.76
76297;BME280;65104;52.994;6.552;2023-05-13T02:22:50;102164.25;;;10.42;99.89
76297;BME280;65104;52.994;6.552;2023-05-13T02:25:15;102163.00;;;10.33;100.00
76297;BME280;65104;52.994;6.552;2023-05-13T02:27:41;102163.63;;;10.27;100.00
76297;BME280;65104;52.994;6.552;2023-05-13T02:30:07;102164.59;;;10.31;100.00
76297;BME280;65104;52.994;6.552;2023-05-13T02:32:32;102158.50;;;10.27;100.00
76297;BME280;65104;52.994;6.552;2023-05-13T02:34:57;102164.50;;;10.28;100.00
76297;BME280;65104;52.994;6.552;2023-05-13T02:37:23;102164.50;;;10.28;100.00
76297;BME280;65104;52.994;6.552;2023-05-13T02:39:48;102166.88;;;10.23;100.00
76297;BME280;65104;52.994;6.552;2023-05-13T02:42:14;102161.00;;;10.26;100.00
76297;BME280;65104;52.994;6.552;2023-05-13T02:44:39;102157.47;;;10.24;100.00
76297;BME280;65104;52.994;6.552;2023-05-13T02:47:04;102161.81;;;10.25;100.00
76297;BME280;65104;52.994;6.552;2023-05-13T02:49:30;102162.63;;;10.24;100.00
76297;BME280;65104;52.994;6.552;2023-05-13T02:51:55;102158.19;;;10.20;100.00
76297;BME280;65104;52.994;6.552;2023-05-13T02:54:21;102156.13;;;10.12;100.00
76297;BME280;65104;52.994;6.552;2023-05-13T02:56:46;102154.03;;;10.04;100.00
76297;BME280;65104;52.994;6.552;2023-05-13T02:59:11;102155.88;;;10.06;100.00
76297;BME280;65104;52.994;6.552;2023-05-13T03:01:37;102149.00;;;10.05;100.00
76297;BME280;65104;52.994;6.552;2023-05-13T03:04:02;102156.53;;;10.02;100.00
76297;BME280;65104;52.994;6.552;2023-05-13T03:06:27;102156.31;;;9.96;100.00
76297;BME280;65104;52.994;6.552;2023-05-13T03:08:53;102156.22;;;9.95;100.00
76297;BME280;65104;52.994;6.552;2023-05-13T03:11:18;102161.28;;;9.93;100.00
76297;BME280;65104;52.994;6.552;2023-05-13T03:13:44;102165.50;;;9.91;100.00
76297;BME280;65104;52.994;6.552;2023-05-13T03:16:09;102160.88;;;9.83;100.00
76297;BME280;65104;52.994;6.552;2023-05-13T03:18:34;102163.28;;;9.79;100.00
76297;BME280;65104;52.994;6.552;2023-05-13T03:21:00;102152.47;;;9.87;100.00
76297;BME280;65104;52.994;6.552;2023-05-13T03:23:25;102162.06;;;9.91;100.00
76297;BME280;65104;52.994;6.552;2023-05-13T03:25:50;102156.13;;;9.92;100.00
76297;BME280;65104;52.994;6.552;2023-05-13T03:28:16;102161.03;;;9.87;100.00
76297;BME280;65104;52.994;6.552;2023-05-13T03:30:41;102158.22;;;9.81;100.00
76297;BME280;65104;52.994;6.552;2023-05-13T03:33:07;102165.03;;;9.81;100.00
76297;BME280;65104;52.994;6.552;2023-05-13T03:35:33;102160.66;;;9.78;100.00
76297;BME280;65104;52.994;6.552;2023-05-13T03:37:58;102152.97;;;9.78;100.00
76297;BME280;65104;52.994;6.552;2023-05-13T03:40:24;102157.28;;;9.79;100.00
76297;BME280;65104;52.994;6.552;2023-05-13T03:42:49;102168.50;;;9.81;100.00
76297;BME280;65104;52.994;6.552;2023-05-13T03:45:15;102160.94;;;9.84;100.00
76297;BME280;65104;52.994;6.552;2023-05-13T03:47:40;102160.66;;;9.78;100.00
76297;BME280;65104;52.994;6.552;2023-05-13T03:50:06;102164.31;;;9.83;100.00
76297;BME280;65104;52.994;6.552;2023-05-13T03:52:31;102162.56;;;9.82;100.00
76297;BME280;65104;52.994;6.552;2023-05-13T03:54:57;102162.81;;;9.88;100.00
76297;BME280;65104;52.994;6.552;2023-05-13T03:57:22;102163.53;;;9.86;100.00
76297;BME280;65104;52.994;6.552;2023-05-13T03:59:47;102166.88;;;9.83;100.00
76297;BME280;65104;52.994;6.552;2023-05-13T04:02:13;102162.06;;;9.91;100.00
76297;BME280;65104;52.994;6.552;2023-05-13T04:04:38;102162.31;;;9.97;100.00
76297;BME280;65104;52.994;6.552;2023-05-13T04:07:04;102161.81;;;10.05;100.00
76297;BME280;65104;52.994;6.552;2023-05-13T04:09:29;102173.03;;;10.07;100.00
76297;BME280;65104;52.994;6.552;2023-05-13T04:11:54;102165.34;;;10.07;100.00
76297;BME280;65104;52.994;6.552;2023-05-13T04:14:20;102165.66;;;10.15;100.00
76297;BME280;65104;52.994;6.552;2023-05-13T04:16:45;102167.34;;;10.14;100.00
76297;BME280;65104;52.994;6.552;2023-05-13T04:19:11;102178.47;;;10.15;100.00
76297;BME280;65104;52.994;6.552;2023-05-13T04:21:36;102174.09;;;10.12;100.00
76297;BME280;65104;52.994;6.552;2023-05-13T04:24:01;102180.91;;;10.12;100.00
76297;BME280;65104;52.994;6.552;2023-05-13T04:26:27;102180.34;;;10.18;100.00
76297;BME280;65104;52.994;6.552;2023-05-13T04:28:52;102180.97;;;10.13;100.00
76297;BME280;65104;52.994;6.552;2023-05-13T04:31:17;102182.72;;;10.14;100.00
76297;BME280;65104;52.994;6.552;2023-05-13T04:33:43;102182.19;;;10.22;100.00
76297;BME280;65104;52.994;6.552;2023-05-13T04:36:09;102189.22;;;10.26;100.00
76297;BME280;65104;52.994;6.552;2023-05-13T04:38:34;102188.53;;;10.30;100.00
76297;BME280;65104;52.994;6.552;2023-05-13T04:41:00;102190.44;;;10.34;100.00
76297;BME280;65104;52.994;6.552;2023-05-13T04:43:25;102192.31;;;10.38;100.00
76297;BME280;65104;52.994;6.552;2023-05-13T04:45:51;102191.53;;;10.40;100.00
76297;BME280;65104;52.994;6.552;2023-05-13T04:48:16;102196.88;;;10.45;100.00
76297;BME280;65104;52.994;6.552;2023-05-13T04:50:45;102195.19;;;10.45;100.00
76297;BME280;65104;52.994;6.552;2023-05-13T04:53:11;102201.22;;;10.46;100.00
76297;BME280;65104;52.994;6.552;2023-05-13T04:55:36;102204.66;;;10.46;100.00
76297;BME280;65104;52.994;6.552;2023-05-13T04:58:02;102199.81;;;10.54;100.00
76297;BME280;65104;52.994;6.552;2023-05-13T05:00:27;102206.72;;;10.55;100.00
76297;BME280;65104;52.994;6.552;2023-05-13T05:02:52;102203.44;;;10.59;100.00
76297;BME280;65104;52.994;6.552;2023-05-13T05:05:18;102208.25;;;10.72;100.00
76297;BME280;65104;52.994;6.552;2023-05-13T05:07:43;102210.03;;;10.73;100.00
76297;BME280;65104;52.994;6.552;2023-05-13T05:10:09;102207.75;;;10.81;100.00
76297;BME280;65104;52.994;6.552;2023-05-13T05:12:34;102209.53;;;10.83;100.00
76297;BME280;65104;52.994;6.552;2023-05-13T05:15:00;102206.53;;;10.94;100.00
76297;BME280;65104;52.994;6.552;2023-05-13T05:17:25;102209.56;;;11.06;100.00
76297;BME280;65104;52.994;6.552;2023-05-13T05:19:53;102212.16;;;11.06;100.00
76297;BME280;65104;52.994;6.552;2023-05-13T05:22:19;102209.13;;;11.16;100.00
76297;BME280;65104;52.994;6.552;2023-05-13T05:24:44;102214.59;;;11.25;100.00
76297;BME280;65104;52.994;6.552;2023-05-13T05:27:12;102208.81;;;11.31;100.00
76297;BME280;65104;52.994;6.552;2023-05-13T05:29:37;102209.81;;;11.34;100.00
76297;BME280;65104;52.994;6.552;2023-05-13T05:32:03;102216.66;;;11.34;100.00
76297;BME280;65104;52.994;6.552;2023-05-13T05:34:29;102217.81;;;11.42;100.00
76297;BME280;65104;52.994;6.552;2023-05-13T05:36:54;102219.66;;;11.46;100.00
76297;BME280;65104;52.994;6.552;2023-05-13T05:39:20;102218.91;;;11.48;100.00
76297;BME280;65104;52.994;6.552;2023-05-13T05:41:45;102227.22;;;11.65;100.00
76297;BME280;65104;52.994;6.552;2023-05-13T05:44:11;102217.94;;;11.69;100.00
76297;BME280;65104;52.994;6.552;2023-05-13T05:46:38;102226.97;;;11.80;100.00
76297;BME280;65104;52.994;6.552;2023-05-13T05:49:03;102218.75;;;11.90;100.00
76297;BME280;65104;52.994;6.552;2023-05-13T05:51:29;102228.44;;;11.97;100.00
76297;BME280;65104;52.994;6.552;2023-05-13T05:53:54;102209.84;;;12.06;100.00
76297;BME280;65104;52.994;6.552;2023-05-13T05:56:19;102217.16;;;12.19;98.32
76297;BME280;65104;52.994;6.552;2023-05-13T05:58:45;102218.41;;;12.30;97.74
76297;BME280;65104;52.994;6.552;2023-05-13T06:01:11;102228.19;;;12.40;97.10
76297;BME280;65104;52.994;6.552;2023-05-13T06:03:36;102220.00;;;12.52;95.12
76297;BME280;65104;52.994;6.552;2023-05-13T06:06:01;102228.28;;;12.68;93.85
76297;BME280;65104;52.994;6.552;2023-05-13T06:08:27;102225.09;;;12.77;93.34
76297;BME280;65104;52.994;6.552;2023-05-13T06:10:56;102220.59;;;12.98;91.17
76297;BME280;65104;52.994;6.552;2023-05-13T06:13:21;102223.50;;;13.09;89.72
76297;BME280;65104;52.994;6.552;2023-05-13T06:15:47;102219.28;;;13.11;89.76
76297;BME280;65104;52.994;6.552;2023-05-13T06:18:12;102219.03;;;13.30;87.36
76297;BME280;65104;52.994;6.552;2023-05-13T06:20:38;102217.69;;;13.43;85.62
76297;BME280;65104;52.994;6.552;2023-05-13T06:23:05;102217.69;;;13.43;85.73
76297;BME280;65104;52.994;6.552;2023-05-13T06:25:30;102222.38;;;13.56;86.06
76297;BME280;65104;52.994;6.552;2023-05-13T06:27:56;102214.38;;;13.78;84.06
76297;BME280;65104;52.994;6.552;2023-05-13T06:30:21;102215.50;;;13.88;83.14
76297;BME280;65104;52.994;6.552;2023-05-13T06:32:47;102203.91;;;14.05;79.24
76297;BME280;65104;52.994;6.552;2023-05-13T06:35:12;102211.22;;;14.20;79.12
76297;BME280;65104;52.994;6.552;2023-05-13T06:37:38;102210.88;;;14.41;78.28
76297;BME280;65104;52.994;6.552;2023-05-13T06:40:04;102211.06;;;14.47;75.45
76297;BME280;65104;52.994;6.552;2023-05-13T06:42:29;102211.16;;;14.51;76.79
76297;BME280;65104;52.994;6.552;2023-05-13T06:44:54;102207.22;;;14.66;75.03
76297;BME280;65104;52.994;6.552;2023-05-13T06:47:20;102206.94;;;14.91;73.96
76297;BME280;65104;52.994;6.552;2023-05-13T06:49:46;102205.00;;;15.21;70.50
76297;BME280;65104;52.994;6.552;2023-05-13T06:52:11;102210.41;;;15.32;73.10
76297;BME280;65104;52.994;6.552;2023-05-13T06:54:36;102209.34;;;15.22;71.86
76297;BME280;65104;52.994;6.552;2023-05-13T06:57:02;102209.03;;;15.49;74.96
76297;BME280;65104;52.994;6.552;2023-05-13T06:59:30;102201.63;;;15.66;72.01
76297;BME280;65104;52.994;6.552;2023-05-13T07:01:55;102207.94;;;15.79;69.46
76297;BME280;65104;52.994;6.552;2023-05-13T07:04:21;102205.63;;;15.92;69.26
76297;BME280;65104;52.994;6.552;2023-05-13T07:06:46;102210.88;;;15.97;68.94
76297;BME280;65104;52.994;6.552;2023-05-13T07:09:13;102204.16;;;16.06;67.03
76297;BME280;65104;52.994;6.552;2023-05-13T07:11:38;102213.03;;;16.21;65.41
76297;BME280;65104;52.994;6.552;2023-05-13T07:14:04;102204.38;;;16.20;65.63
76297;BME280;65104;52.994;6.552;2023-05-13T07:16:29;102202.09;;;16.37;65.04
76297;BME280;65104;52.994;6.552;2023-05-13T07:18:55;102198.59;;;16.35;63.36
76297;BME280;65104;52.994;6.552;2023-05-13T07:21:20;102205.78;;;16.51;62.33
76297;BME280;65104;52.994;6.552;2023-05-13T07:23:45;102205.13;;;16.64;62.31
76297;BME280;65104;52.994;6.552;2023-05-13T07:26:11;102198.09;;;16.57;63.59
76297;BME280;65104;52.994;6.552;2023-05-13T07:28:36;102198.28;;;16.68;64.09
76297;BME280;65104;52.994;6.552;2023-05-13T07:31:03;102206.13;;;16.71;63.60
76297;BME280;65104;52.994;6.552;2023-05-13T07:33:29;102203.66;;;16.80;62.39
76297;BME280;65104;52.994;6.552;2023-05-13T07:35:54;102207.09;;;16.77;62.95
76297;BME280;65104;52.994;6.552;2023-05-13T07:38:20;102205.25;;;16.70;63.28
76297;BME280;65104;52.994;6.552;2023-05-13T07:40:45;102206.28;;;16.83;63.22
76297;BME280;65104;52.994;6.552;2023-05-13T07:43:10;102203.91;;;16.97;62.39
76297;BME280;65104;52.994;6.552;2023-05-13T07:45:37;102206.56;;;17.00;62.40
76297;BME280;65104;52.994;6.552;2023-05-13T07:48:03;102212.59;;;16.99;61.20
76297;BME280;65104;52.994;6.552;2023-05-13T07:50:29;102201.44;;;17.06;60.48
76297;BME280;65104;52.994;6.552;2023-05-13T07:52:56;102211.22;;;17.25;58.18
76297;BME280;65104;52.994;6.552;2023-05-13T07:55:22;102199.25;;;17.35;59.83
76297;BME280;65104;52.994;6.552;2023-05-13T07:57:47;102205.44;;;17.47;57.60
76297;BME280;65104;52.994;6.552;2023-05-13T08:00:13;102209.13;;;17.65;57.45
76297;BME280;65104;52.994;6.552;2023-05-13T08:02:41;102205.75;;;17.73;57.69
76297;BME280;65104;52.994;6.552;2023-05-13T08:05:06;102209.00;;;17.57;58.09
76297;BME280;65104;52.994;6.552;2023-05-13T08:07:32;102205.00;;;17.83;56.37
76297;BME280;65104;52.994;6.552;2023-05-13T08:09:57;102208.13;;;17.55;53.79
76297;BME280;65104;52.994;6.552;2023-05-13T08:12:22;102203.19;;;17.75;54.59
76297;BME280;65104;52.994;6.552;2023-05-13T08:14:48;102203.31;;;17.85;56.48
76297;BME280;65104;52.994;6.552;2023-05-13T08:17:13;102212.13;;;17.98;54.76
76297;BME280;65104;52.994;6.552;2023-05-13T08:19:39;102207.88;;;18.06;54.04
76297;BME280;65104;52.994;6.552;2023-05-13T08:22:04;102211.38;;;18.11;54.56
76297;BME280;65104;52.994;6.552;2023-05-13T08:24:29;102217.56;;;18.24;54.58
76297;BME280;65104;52.994;6.552;2023-05-13T08:26:55;102215.81;;;18.26;54.22
76297;BME280;65104;52.994;6.552;2023-05-13T08:29:20;102210.84;;;18.53;53.77
76297;BME280;65104;52.994;6.552;2023-05-13T08:31:46;102208.38;;;18.65;52.29
76297;BME280;65104;52.994;6.552;2023-05-13T08:34:11;102209.34;;;18.81;53.39
76297;BME280;65104;52.994;6.552;2023-05-13T08:36:36;102212.97;;;19.07;52.66
76297;BME280;65104;52.994;6.552;2023-05-13T08:39:02;102202.47;;;18.89;51.73
76297;BME280;65104;52.994;6.552;2023-05-13T08:41:29;102201.00;;;19.43;49.72
76297;BME280;65104;52.994;6.552;2023-05-13T08:43:56;102203.75;;;19.73;50.75
76297;BME280;65104;52.994;6.552;2023-05-13T08:46:23;102202.91;;;19.86;48.56
76297;BME280;65104;52.994;6.552;2023-05-13T08:48:52;102202.91;;;19.86;47.97
76297;BME280;65104;52.994;6.552;2023-05-13T08:51:18;102203.84;;;20.20;48.53
76297;BME280;65104;52.994;6.552;2023-05-13T08:53:44;102202.09;;;20.60;47.88
76297;BME280;65104;52.994;6.552;2023-05-13T08:56:10;102208.22;;;20.47;46.22
76297;BME280;65104;52.994;6.552;2023-05-13T08:58:36;102206.44;;;20.71;46.62
76297;BME280;65104;52.994;6.552;2023-05-13T09:01:02;102198.50;;;21.12;44.34
76297;BME280;65104;52.994;6.552;2023-05-13T09:03:28;102205.50;;;21.19;44.96
76297;BME280;65104;52.994;6.552;2023-05-13T09:05:53;102202.00;;;21.26;42.65
76297;BME280;65104;52.994;6.552;2023-05-13T09:08:19;102205.34;;;21.54;45.33
76297;BME280;65104;52.994;6.552;2023-05-13T09:10:44;102208.66;;;21.85;42.06
76297;BME280;65104;52.994;6.552;2023-05-13T09:13:12;102207.94;;;21.60;41.63
76297;BME280;65104;52.994;6.552;2023-05-13T09:15:41;102204.28;;;21.90;42.59
76297;BME280;65104;52.994;6.552;2023-05-13T09:18:07;102207.75;;;21.99;41.75
76297;BME280;65104;52.994;6.552;2023-05-13T09:20:34;102213.09;;;21.69;45.12
76297;BME280;65104;52.994;6.552;2023-05-13T09:23:07;102204.13;;;22.19;43.29
76297;BME280;65104;52.994;6.552;2023-05-13T09:25:33;102201.13;;;22.58;41.09
76297;BME280;65104;52.994;6.552;2023-05-13T09:28:04;102199.38;;;22.59;41.46
76297;BME280;65104;52.994;6.552;2023-05-13T09:30:35;102200.00;;;22.90;40.74
76297;BME280;65104;52.994;6.552;2023-05-13T09:33:12;102198.94;;;23.07;41.52
76297;BME280;65104;52.994;6.552;2023-05-13T09:35:40;102204.94;;;23.17;37.50
76297;BME280;65104;52.994;6.552;2023-05-13T09:38:13;102201.16;;;23.39;37.63
76297;BME280;65104;52.994;6.552;2023-05-13T09:40:39;102201.13;;;23.42;40.08
76297;BME280;65104;52.994;6.552;2023-05-13T09:43:05;102197.47;;;23.55;36.70
76297;BME280;65104;52.994;6.552;2023-05-13T09:45:33;102197.22;;;23.02;36.94
76297;BME280;65104;52.994;6.552;2023-05-13T09:47:58;102193.28;;;23.38;38.49
76297;BME280;65104;52.994;6.552;2023-05-13T09:50:23;102185.72;;;23.81;34.02
76297;BME280;65104;52.994;6.552;2023-05-13T09:52:49;102185.16;;;22.89;35.55
76297;BME280;65104;52.994;6.552;2023-05-13T09:55:15;102187.59;;;23.04;36.51
76297;BME280;65104;52.994;6.552;2023-05-13T09:57:40;102185.91;;;23.70;37.38
76297;BME280;65104;52.994;6.552;2023-05-13T10:00:06;102181.19;;;23.92;34.62
76297;BME280;65104;52.994;6.552;2023-05-13T10:02:33;102183.34;;;23.66;34.98
76297;BME280;65104;52.994;6.552;2023-05-13T10:04:59;102186.97;;;24.15;34.90
76297;BME280;65104;52.994;6.552;2023-05-13T10:07:26;102183.25;;;24.30;35.71
76297;BME280;65104;52.994;6.552;2023-05-13T10:09:53;102172.69;;;24.33;32.51
76297;BME280;65104;52.994;6.552;2023-05-13T10:12:24;102173.56;;;24.34;35.29
76297;BME280;65104;52.994;6.552;2023-05-13T10:14:51;102185.84;;;24.32;32.24
76297;BME280;65104;52.994;6.552;2023-05-13T10:17:21;102173.56;;;24.34;32.72
76297;BME280;65104;52.994;6.552;2023-05-13T10:19:51;102177.00;;;24.36;32.10
76297;BME280;65104;52.994;6.552;2023-05-13T10:22:27;102176.47;;;24.15;31.18
76297;BME280;65104;52.994;6.552;2023-05-13T10:24:56;102164.13;;;24.69;33.65
76297;BME280;65104;52.994;6.552;2023-05-13T10:27:25;102165.59;;;24.86;33.24
76297;BME280;65104;52.994;6.552;2023-05-13T10:29:53;102176.25;;;24.78;32.21
76297;BME280;65104;52.994;6.552;2023-05-13T10:32:18;102171.13;;;24.23;33.85
76297;BME280;65104;52.994;6.552;2023-05-13T10:34:45;102159.69;;;24.75;34.20
76297;BME280;65104;52.994;6.552;2023-05-13T10:37:28;102156.09;;;24.31;36.81
76297;BME280;65104;52.994;6.552;2023-05-13T10:40:17;102164.13;;;24.23;37.43
76297;BME280;65104;52.994;6.552;2023-05-13T10:43:16;102163.72;;;24.45;36.78
76297;BME280;65104;52.994;6.552;2023-05-13T10:45:50;102155.81;;;24.94;35.70
76297;BME280;65104;52.994;6.552;2023-05-13T10:48:17;102159.38;;;24.44;33.84
76297;BME280;65104;52.994;6.552;2023-05-13T10:50:56;102160.41;;;24.81;32.08
76297;BME280;65104;52.994;6.552;2023-05-13T10:53:27;102158.13;;;24.64;33.68
76297;BME280;65104;52.994;6.552;2023-05-13T10:56:02;102157.47;;;25.41;32.71
76297;BME280;65104;52.994;6.552;2023-05-13T10:58:33;102152.59;;;25.23;34.09
76297;BME280;65104;52.994;6.552;2023-05-13T11:01:40;102148.34;;;25.56;33.31
76297;BME280;65104;52.994;6.552;2023-05-13T11:04:17;102150.63;;;26.08;32.73
76297;BME280;65104;52.994;6.552;2023-05-13T11:06:45;102150.81;;;26.02;30.46
76297;BME280;65104;52.994;6.552;2023-05-13T11:09:31;102145.41;;;26.06;30.12
76297;BME280;65104;52.994;6.552;2023-05-13T11:11:58;102145.53;;;25.66;33.44
76297;BME280;65104;52.994;6.552;2023-05-13T11:14:24;102140.28;;;26.02;31.92
76297;BME280;65104;52.994;6.552;2023-05-13T11:19:28;102129.16;;;26.23;28.86
76297;BME280;65104;52.994;6.552;2023-05-13T11:21:56;102123.94;;;26.22;28.26
76297;BME280;65104;52.994;6.552;2023-05-13T11:24:23;102121.06;;;26.65;28.84
76297;BME280;65104;52.994;6.552;2023-05-13T11:29:32;102124.34;;;26.73;32.46
76297;BME280;65104;52.994;6.552;2023-05-13T11:31:59;102127.53;;;26.53;27.73
76297;BME280;65104;52.994;6.552;2023-05-13T11:34:25;102127.38;;;26.25;30.91
76297;BME280;65104;52.994;6.552;2023-05-13T11:37:06;102123.75;;;26.94;25.33
76297;BME280;65104;52.994;6.552;2023-05-13T11:39:38;102112.94;;;26.72;27.13
76297;BME280;65104;52.994;6.552;2023-05-13T11:42:08;102130.34;;;26.47;24.95
76297;BME280;65104;52.994;6.552;2023-05-13T11:44:35;102123.84;;;26.59;26.53
76297;BME280;65104;52.994;6.552;2023-05-13T11:47:03;102128.13;;;25.59;25.42
76297;BME280;65104;52.994;6.552;2023-05-13T11:49:33;102120.59;;;26.49;28.98
76297;BME280;65104;52.994;6.552;2023-05-13T11:52:03;102115.84;;;25.20;29.38
76297;BME280;65104;52.994;6.552;2023-05-13T11:54:29;102119.53;;;25.13;30.95
76297;BME280;65104;52.994;6.552;2023-05-13T11:56:54;102118.63;;;25.14;28.98
76297;BME280;65104;52.994;6.552;2023-05-13T11:59:20;102112.50;;;26.23;27.19
76297;BME280;65104;52.994;6.552;2023-05-13T12:01:57;102115.00;;;26.30;29.09
76297;BME280;65104;52.994;6.552;2023-05-13T12:04:26;102116.88;;;27.19;27.21
76297;BME280;65104;52.994;6.552;2023-05-13T12:06:53;102122.50;;;26.10;25.40
76297;BME280;65104;52.994;6.552;2023-05-13T12:09:21;102109.81;;;26.27;24.87
76297;BME280;65104;52.994;6.552;2023-05-13T12:11:47;102109.94;;;26.84;26.04
76297;BME280;65104;52.994;6.552;2023-05-13T12:14:13;102113.91;;;27.01;25.56
76297;BME280;65104;52.994;6.552;2023-05-13T12:16:38;102107.28;;;27.45;28.28
76297;BME280;65104;52.994;6.552;2023-05-13T12:19:06;102105.25;;;27.25;26.70
76297;BME280;65104;52.994;6.552;2023-05-13T12:21:31;102115.66;;;25.29;27.36
76297;BME280;65104;52.994;6.552;2023-05-13T12:23:57;102116.91;;;26.22;28.80
76297;BME280;65104;52.994;6.552;2023-05-13T12:26:23;102112.78;;;26.78;28.89
76297;BME280;65104;52.994;6.552;2023-05-13T12:28:55;102106.66;;;26.76;26.96
76297;BME280;65104;52.994;6.552;2023-05-13T12:31:21;102098.72;;;26.78;26.42
76297;BME280;65104;52.994;6.552;2023-05-13T12:33:48;102092.72;;;27.04;26.94
76297;BME280;65104;52.994;6.552;2023-05-13T12:36:21;102104.66;;;27.73;27.88
76297;BME280;65104;52.994;6.552;2023-05-13T12:39:09;102107.66;;;26.07;28.32
76297;BME280;65104;52.994;6.552;2023-05-13T12:41:40;102109.31;;;24.97;32.22
76297;BME280;65104;52.994;6.552;2023-05-13T12:44:15;102105.81;;;24.03;32.19
76297;BME280;65104;52.994;6.552;2023-05-13T12:46:51;102112.97;;;23.35;33.79
76297;BME280;65104;52.994;6.552;2023-05-13T12:49:17;102105.00;;;24.49;33.56
76297;BME280;65104;52.994;6.552;2023-05-13T12:51:42;102101.69;;;26.01;30.91
76297;BME280;65104;52.994;6.552;2023-05-13T12:54:09;102098.38;;;25.56;28.06
76297;BME280;65104;52.994;6.552;2023-05-13T12:56:34;102113.19;;;24.78;30.45